Decoded Metar for KSFM (SANFORD MUNI in ME, USA) (IATA:SFM) | Meteo·Mobile Aviation Weather
aviador You're here:

KSFM Decoded Metar

SANFORD MUNI in ME, USA
Report Time2018-08-19 03:56:00
UTC Time2018-08-19 04:28:16
Flight Rules vfr VFR
Wind020° at 04 kt
W.Decomp.*RWY 07: 3.4 kt HW 2.2 kt LCW
RWY 32: 0.9 kt HW 3.9 kt RCW
W.Rank020° ranks 14
Current wind is below 020° avg. (7.8)
Visibility9999 m
Phenomena:N/A
Clouds:Broken 080 Hf
Expected CloudBase > 400 ft AGL from Temp-Dew spread
Ceiling8,000 ft
Temp18°C (ISA +3)
Dew Point17°C (94% RH)
QNH1014 hPa
Density Alt876 ft
Elevation243 ft
Report Wrong Elevation
Raw Report
KSFM 190356Z AUTO 02004KT 10SM BKN080 18/17 A2994 RMK AO2 SLP139
T01830167 402830183=

Extra information for KSFM:More info

Metar Taf Metar & Taf Last 4 Metars F.Rules Stats Wind Profile Meteogram Temp Stats Airport Information Weather charts Add Link Nearby VenuesMetar ALERT Operation Metar Decoded Social comments

AIRNAV info for KSFM